sensor_id;sensor_type;location;lat;lon;timestamp;P1;durP1;ratioP1;P2;durP2;ratioP2
44919;SDS011;30655;53.094;6.072;2022-12-07T00:00:28;10.90;;;1.90;;
44919;SDS011;30655;53.094;6.072;2022-12-07T00:03:20;6.38;;;1.60;;
44919;SDS011;30655;53.094;6.072;2022-12-07T00:06:19;10.05;;;1.55;;
44919;SDS011;30655;53.094;6.072;2022-12-07T00:10:05;8.35;;;1.98;;
44919;SDS011;30655;53.094;6.072;2022-12-07T00:12:39;14.93;;;1.52;;
44919;SDS011;30655;53.094;6.072;2022-12-07T00:15:38;9.80;;;1.08;;
44919;SDS011;30655;53.094;6.072;2022-12-07T00:18:44;8.57;;;1.10;;
44919;SDS011;30655;53.094;6.072;2022-12-07T00:21:36;13.60;;;1.40;;
44919;SDS011;30655;53.094;6.072;2022-12-07T00:27:24;6.47;;;1.17;;
44919;SDS011;30655;53.094;6.072;2022-12-07T00:30:05;9.98;;;1.27;;
44919;SDS011;30655;53.094;6.072;2022-12-07T00:32:55;7.90;;;1.30;;
44919;SDS011;30655;53.094;6.072;2022-12-07T00:35:23;9.15;;;1.27;;
44919;SDS011;30655;53.094;6.072;2022-12-07T00:38:01;8.82;;;2.05;;
44919;SDS011;30655;53.094;6.072;2022-12-07T00:40:33;8.20;;;1.10;;
44919;SDS011;30655;53.094;6.072;2022-12-07T00:43:22;7.38;;;1.23;;
44919;SDS011;30655;53.094;6.072;2022-12-07T00:46:02;6.10;;;1.60;;
44919;SDS011;30655;53.094;6.072;2022-12-07T00:48:48;8.98;;;1.30;;
44919;SDS011;30655;53.094;6.072;2022-12-07T00:54:18;8.80;;;1.08;;
44919;SDS011;30655;53.094;6.072;2022-12-07T00:56:55;2.90;;;0.70;;
44919;SDS011;30655;53.094;6.072;2022-12-07T00:59:29;6.28;;;0.90;;
44919;SDS011;30655;53.094;6.072;2022-12-07T01:02:09;7.60;;;1.00;;
44919;SDS011;30655;53.094;6.072;2022-12-07T01:04:44;7.53;;;1.10;;
44919;SDS011;30655;53.094;6.072;2022-12-07T01:07:25;11.93;;;1.27;;
44919;SDS011;30655;53.094;6.072;2022-12-07T01:10:08;8.55;;;1.70;;
44919;SDS011;30655;53.094;6.072;2022-12-07T01:12:38;8.32;;;1.05;;
44919;SDS011;30655;53.094;6.072;2022-12-07T01:15:28;5.13;;;0.90;;
44919;SDS011;30655;53.094;6.072;2022-12-07T01:18:12;9.57;;;1.23;;
44919;SDS011;30655;53.094;6.072;2022-12-07T01:23:47;6.05;;;1.30;;
44919;SDS011;30655;53.094;6.072;2022-12-07T01:26:20;9.13;;;0.73;;
44919;SDS011;30655;53.094;6.072;2022-12-07T01:28:50;6.82;;;0.73;;
44919;SDS011;30655;53.094;6.072;2022-12-07T01:31:23;9.40;;;1.08;;
44919;SDS011;30655;53.094;6.072;2022-12-07T01:34:02;6.97;;;1.25;;
44919;SDS011;30655;53.094;6.072;2022-12-07T01:36:31;8.32;;;1.58;;
44919;SDS011;30655;53.094;6.072;2022-12-07T01:39:20;4.93;;;0.82;;
44919;SDS011;30655;53.094;6.072;2022-12-07T01:41:50;6.85;;;0.73;;
44919;SDS011;30655;53.094;6.072;2022-12-07T01:45:15;7.95;;;0.70;;
44919;SDS011;30655;53.094;6.072;2022-12-07T01:47:36;8.85;;;1.45;;
44919;SDS011;30655;53.094;6.072;2022-12-07T01:50:06;7.07;;;1.20;;
44919;SDS011;30655;53.094;6.072;2022-12-07T01:53:07;9.82;;;0.93;;
44919;SDS011;30655;53.094;6.072;2022-12-07T01:55:38;6.65;;;0.80;;
44919;SDS011;30655;53.094;6.072;2022-12-07T01:58:30;7.88;;;0.77;;
44919;SDS011;30655;53.094;6.072;2022-12-07T02:01:10;7.28;;;0.80;;
44919;SDS011;30655;53.094;6.072;2022-12-07T02:03:52;8.70;;;1.35;;
44919;SDS011;30655;53.094;6.072;2022-12-07T02:06:49;11.02;;;0.85;;
44919;SDS011;30655;53.094;6.072;2022-12-07T02:20:09;14.30;;;0.90;;
44919;SDS011;30655;53.094;6.072;2022-12-07T02:29:34;5.90;;;0.88;;
44919;SDS011;30655;53.094;6.072;2022-12-07T02:32:31;6.68;;;0.80;;
44919;SDS011;30655;53.094;6.072;2022-12-07T02:41:18;6.05;;;0.80;;
44919;SDS011;30655;53.094;6.072;2022-12-07T02:47:12;6.07;;;1.38;;
44919;SDS011;30655;53.094;6.072;2022-12-07T02:49:48;6.03;;;1.10;;
44919;SDS011;30655;53.094;6.072;2022-12-07T02:52:18;4.63;;;0.80;;
44919;SDS011;30655;53.094;6.072;2022-12-07T02:54:52;6.03;;;0.80;;
44919;SDS011;30655;53.094;6.072;2022-12-07T02:57:25;6.88;;;0.88;;
44919;SDS011;30655;53.094;6.072;2022-12-07T03:00:10;12.30;;;1.38;;
44919;SDS011;30655;53.094;6.072;2022-12-07T03:02:52;7.68;;;1.55;;
44919;SDS011;30655;53.094;6.072;2022-12-07T03:05:36;12.38;;;1.23;;
44919;SDS011;30655;53.094;6.072;2022-12-07T03:08:30;8.02;;;1.02;;
44919;SDS011;30655;53.094;6.072;2022-12-07T03:11:14;6.93;;;0.80;;
44919;SDS011;30655;53.094;6.072;2022-12-07T03:13:58;10.15;;;1.00;;
44919;SDS011;30655;53.094;6.072;2022-12-07T03:16:42;5.55;;;1.10;;
44919;SDS011;30655;53.094;6.072;2022-12-07T03:19:31;9.13;;;1.77;;
44919;SDS011;30655;53.094;6.072;2022-12-07T03:22:10;5.72;;;0.70;;
44919;SDS011;30655;53.094;6.072;2022-12-07T03:24:43;2.67;;;0.65;;
44919;SDS011;30655;53.094;6.072;2022-12-07T03:27:23;4.85;;;0.90;;
44919;SDS011;30655;53.094;6.072;2022-12-07T03:30:17;5.10;;;0.70;;
44919;SDS011;30655;53.094;6.072;2022-12-07T03:33:06;4.22;;;0.80;;
44919;SDS011;30655;53.094;6.072;2022-12-07T03:42:45;7.72;;;1.38;;
44919;SDS011;30655;53.094;6.072;2022-12-07T03:45:40;8.32;;;0.82;;
44919;SDS011;30655;53.094;6.072;2022-12-07T03:48:41;5.63;;;0.70;;
44919;SDS011;30655;53.094;6.072;2022-12-07T03:51:25;5.50;;;0.70;;
44919;SDS011;30655;53.094;6.072;2022-12-07T03:54:09;3.40;;;0.80;;
44919;SDS011;30655;53.094;6.072;2022-12-07T03:56:49;5.03;;;0.90;;
44919;SDS011;30655;53.094;6.072;2022-12-07T03:59:32;8.23;;;0.70;;
44919;SDS011;30655;53.094;6.072;2022-12-07T04:02:16;8.00;;;0.88;;
44919;SDS011;30655;53.094;6.072;2022-12-07T04:04:58;6.03;;;1.10;;
44919;SDS011;30655;53.094;6.072;2022-12-07T04:07:32;4.80;;;1.05;;
44919;SDS011;30655;53.094;6.072;2022-12-07T04:10:10;7.35;;;1.00;;
44919;SDS011;30655;53.094;6.072;2022-12-07T04:12:56;5.13;;;0.80;;
44919;SDS011;30655;53.094;6.072;2022-12-07T04:15:45;10.32;;;0.88;;
44919;SDS011;30655;53.094;6.072;2022-12-07T04:18:23;13.65;;;1.20;;
44919;SDS011;30655;53.094;6.072;2022-12-07T04:26:47;10.90;;;1.05;;
44919;SDS011;30655;53.094;6.072;2022-12-07T04:29:36;4.32;;;0.85;;
44919;SDS011;30655;53.094;6.072;2022-12-07T04:32:21;7.43;;;1.02;;
44919;SDS011;30655;53.094;6.072;2022-12-07T04:35:00;5.50;;;0.90;;
44919;SDS011;30655;53.094;6.072;2022-12-07T04:37:31;7.50;;;0.90;;
44919;SDS011;30655;53.094;6.072;2022-12-07T04:43:25;8.82;;;0.93;;
44919;SDS011;30655;53.094;6.072;2022-12-07T04:49:05;8.80;;;0.80;;
44919;SDS011;30655;53.094;6.072;2022-12-07T04:52:04;8.70;;;1.20;;
44919;SDS011;30655;53.094;6.072;2022-12-07T04:54:45;4.72;;;0.68;;
44919;SDS011;30655;53.094;6.072;2022-12-07T04:57:36;5.95;;;0.70;;
44919;SDS011;30655;53.094;6.072;2022-12-07T05:00:17;7.55;;;1.10;;
44919;SDS011;30655;53.094;6.072;2022-12-07T05:05:45;6.25;;;0.85;;
44919;SDS011;30655;53.094;6.072;2022-12-07T05:08:47;5.70;;;1.08;;
44919;SDS011;30655;53.094;6.072;2022-12-07T05:11:50;8.55;;;0.88;;
44919;SDS011;30655;53.094;6.072;2022-12-07T05:14:48;6.88;;;0.80;;
44919;SDS011;30655;53.094;6.072;2022-12-07T05:17:45;8.05;;;0.63;;
44919;SDS011;30655;53.094;6.072;2022-12-07T05:20:29;7.15;;;0.98;;
44919;SDS011;30655;53.094;6.072;2022-12-07T05:23:08;7.10;;;1.42;;
44919;SDS011;30655;53.094;6.072;2022-12-07T05:25:52;7.35;;;0.75;;
44919;SDS011;30655;53.094;6.072;2022-12-07T05:28:50;6.07;;;1.00;;
44919;SDS011;30655;53.094;6.072;2022-12-07T05:31:17;6.65;;;0.68;;
44919;SDS011;30655;53.094;6.072;2022-12-07T05:34:07;10.35;;;1.10;;
44919;SDS011;30655;53.094;6.072;2022-12-07T05:37:02;9.43;;;1.13;;
44919;SDS011;30655;53.094;6.072;2022-12-07T05:39:29;11.30;;;1.40;;
44919;SDS011;30655;53.094;6.072;2022-12-07T05:42:23;3.63;;;0.68;;
44919;SDS011;30655;53.094;6.072;2022-12-07T05:45:07;8.57;;;1.50;;
44919;SDS011;30655;53.094;6.072;2022-12-07T05:47:45;17.25;;;2.55;;
44919;SDS011;30655;53.094;6.072;2022-12-07T05:53:51;11.63;;;1.90;;
44919;SDS011;30655;53.094;6.072;2022-12-07T05:56:41;12.27;;;1.55;;
44919;SDS011;30655;53.094;6.072;2022-12-07T05:59:13;8.30;;;1.23;;
44919;SDS011;30655;53.094;6.072;2022-12-07T06:01:57;5.60;;;0.90;;
44919;SDS011;30655;53.094;6.072;2022-12-07T06:04:32;8.18;;;0.77;;
44919;SDS011;30655;53.094;6.072;2022-12-07T06:07:36;9.60;;;1.20;;
44919;SDS011;30655;53.094;6.072;2022-12-07T06:10:16;5.97;;;1.45;;
44919;SDS011;30655;53.094;6.072;2022-12-07T06:12:55;8.00;;;1.15;;
44919;SDS011;30655;53.094;6.072;2022-12-07T06:15:27;4.95;;;1.05;;
44919;SDS011;30655;53.094;6.072;2022-12-07T06:18:16;8.88;;;1.77;;
44919;SDS011;30655;53.094;6.072;2022-12-07T06:21:10;11.10;;;2.47;;
44919;SDS011;30655;53.094;6.072;2022-12-07T06:24:05;12.60;;;2.40;;
44919;SDS011;30655;53.094;6.072;2022-12-07T06:29:46;7.80;;;1.55;;
44919;SDS011;30655;53.094;6.072;2022-12-07T06:32:26;6.22;;;1.48;;
44919;SDS011;30655;53.094;6.072;2022-12-07T06:35:08;8.50;;;1.27;;
44919;SDS011;30655;53.094;6.072;2022-12-07T06:37:37;4.05;;;0.95;;
44919;SDS011;30655;53.094;6.072;2022-12-07T06:40:05;5.82;;;1.02;;
44919;SDS011;30655;53.094;6.072;2022-12-07T06:42:33;5.60;;;1.30;;
44919;SDS011;30655;53.094;6.072;2022-12-07T06:45:01;9.73;;;1.80;;
44919;SDS011;30655;53.094;6.072;2022-12-07T06:47:30;7.57;;;1.27;;
44919;SDS011;30655;53.094;6.072;2022-12-07T06:50:07;6.10;;;1.10;;
44919;SDS011;30655;53.094;6.072;2022-12-07T06:52:35;8.13;;;1.27;;
44919;SDS011;30655;53.094;6.072;2022-12-07T06:55:02;9.65;;;1.40;;
44919;SDS011;30655;53.094;6.072;2022-12-07T06:57:29;15.10;;;1.33;;
44919;SDS011;30655;53.094;6.072;2022-12-07T06:59:56;13.65;;;0.88;;
44919;SDS011;30655;53.094;6.072;2022-12-07T07:02:24;9.07;;;1.20;;
44919;SDS011;30655;53.094;6.072;2022-12-07T07:04:52;11.15;;;1.30;;
44919;SDS011;30655;53.094;6.072;2022-12-07T07:07:20;8.85;;;1.77;;
44919;SDS011;30655;53.094;6.072;2022-12-07T07:09:49;17.63;;;1.92;;
44919;SDS011;30655;53.094;6.072;2022-12-07T07:12:16;12.32;;;2.03;;
44919;SDS011;30655;53.094;6.072;2022-12-07T07:14:43;9.35;;;1.40;;
44919;SDS011;30655;53.094;6.072;2022-12-07T07:17:10;6.15;;;0.95;;
44919;SDS011;30655;53.094;6.072;2022-12-07T07:19:38;7.75;;;1.38;;
44919;SDS011;30655;53.094;6.072;2022-12-07T07:22:05;10.50;;;1.67;;
44919;SDS011;30655;53.094;6.072;2022-12-07T07:24:32;9.30;;;1.50;;
44919;SDS011;30655;53.094;6.072;2022-12-07T07:26:59;6.35;;;1.30;;
44919;SDS011;30655;53.094;6.072;2022-12-07T07:29:26;13.82;;;1.65;;
44919;SDS011;30655;53.094;6.072;2022-12-07T07:31:53;9.98;;;1.48;;
44919;SDS011;30655;53.094;6.072;2022-12-07T07:34:27;10.50;;;1.23;;
44919;SDS011;30655;53.094;6.072;2022-12-07T07:36:55;11.75;;;1.63;;
44919;SDS011;30655;53.094;6.072;2022-12-07T07:39:22;8.65;;;1.83;;
44919;SDS011;30655;53.094;6.072;2022-12-07T07:41:50;7.78;;;1.77;;
44919;SDS011;30655;53.094;6.072;2022-12-07T07:44:17;16.33;;;2.30;;
44919;SDS011;30655;53.094;6.072;2022-12-07T07:46:44;11.23;;;2.03;;
44919;SDS011;30655;53.094;6.072;2022-12-07T07:49:11;16.05;;;1.77;;
44919;SDS011;30655;53.094;6.072;2022-12-07T07:51:38;6.13;;;2.10;;
44919;SDS011;30655;53.094;6.072;2022-12-07T07:54:09;9.27;;;2.15;;
44919;SDS011;30655;53.094;6.072;2022-12-07T07:59:05;7.32;;;1.73;;
44919;SDS011;30655;53.094;6.072;2022-12-07T08:01:32;9.07;;;1.98;;
44919;SDS011;30655;53.094;6.072;2022-12-07T08:04:11;11.15;;;1.63;;
44919;SDS011;30655;53.094;6.072;2022-12-07T08:06:59;8.68;;;1.27;;
44919;SDS011;30655;53.094;6.072;2022-12-07T08:09:45;10.20;;;1.52;;
44919;SDS011;30655;53.094;6.072;2022-12-07T08:12:35;13.88;;;1.52;;
44919;SDS011;30655;53.094;6.072;2022-12-07T08:15:33;12.43;;;2.03;;
44919;SDS011;30655;53.094;6.072;2022-12-07T08:18:30;7.75;;;1.58;;
44919;SDS011;30655;53.094;6.072;2022-12-07T08:21:12;9.68;;;1.85;;
44919;SDS011;30655;53.094;6.072;2022-12-07T08:23:52;13.88;;;2.83;;
44919;SDS011;30655;53.094;6.072;2022-12-07T08:26:33;10.73;;;2.20;;
44919;SDS011;30655;53.094;6.072;2022-12-07T08:29:04;5.88;;;2.42;;
44919;SDS011;30655;53.094;6.072;2022-12-07T08:32:15;5.47;;;1.90;;
44919;SDS011;30655;53.094;6.072;2022-12-07T08:35:07;15.02;;;2.38;;
44919;SDS011;30655;53.094;6.072;2022-12-07T08:37:34;12.23;;;1.90;;
44919;SDS011;30655;53.094;6.072;2022-12-07T08:40:05;8.63;;;2.20;;
44919;SDS011;30655;53.094;6.072;2022-12-07T08:42:34;9.93;;;1.45;;
44919;SDS011;30655;53.094;6.072;2022-12-07T08:45:05;11.50;;;1.80;;
44919;SDS011;30655;53.094;6.072;2022-12-07T08:47:35;10.13;;;1.85;;
44919;SDS011;30655;53.094;6.072;2022-12-07T08:50:10;9.35;;;1.80;;
44919;SDS011;30655;53.094;6.072;2022-12-07T08:52:45;6.50;;;1.25;;
44919;SDS011;30655;53.094;6.072;2022-12-07T08:55:17;8.52;;;1.67;;
44919;SDS011;30655;53.094;6.072;2022-12-07T08:57:55;11.68;;;1.73;;
44919;SDS011;30655;53.094;6.072;2022-12-07T09:00:26;12.13;;;1.65;;
44919;SDS011;30655;53.094;6.072;2022-12-07T09:02:57;11.70;;;1.52;;
44919;SDS011;30655;53.094;6.072;2022-12-07T09:05:45;12.30;;;1.60;;
44919;SDS011;30655;53.094;6.072;2022-12-07T09:08:16;7.90;;;1.63;;
44919;SDS011;30655;53.094;6.072;2022-12-07T09:10:47;9.00;;;1.30;;
44919;SDS011;30655;53.094;6.072;2022-12-07T09:13:25;12.77;;;1.55;;
44919;SDS011;30655;53.094;6.072;2022-12-07T09:15:55;8.55;;;1.38;;
44919;SDS011;30655;53.094;6.072;2022-12-07T09:18:25;9.45;;;1.60;;
44919;SDS011;30655;53.094;6.072;2022-12-07T09:21:01;9.18;;;1.73;;
44919;SDS011;30655;53.094;6.072;2022-12-07T09:23:42;9.52;;;1.40;;
44919;SDS011;30655;53.094;6.072;2022-12-07T09:26:30;5.57;;;1.35;;
44919;SDS011;30655;53.094;6.072;2022-12-07T09:32:02;9.05;;;1.25;;
44919;SDS011;30655;53.094;6.072;2022-12-07T09:34:37;11.60;;;1.83;;
44919;SDS011;30655;53.094;6.072;2022-12-07T09:37:08;8.13;;;1.45;;
44919;SDS011;30655;53.094;6.072;2022-12-07T09:39:40;5.20;;;1.33;;
44919;SDS011;30655;53.094;6.072;2022-12-07T09:42:43;11.98;;;1.30;;
44919;SDS011;30655;53.094;6.072;2022-12-07T09:45:31;7.25;;;1.58;;
44919;SDS011;30655;53.094;6.072;2022-12-07T09:48:34;7.97;;;2.17;;
44919;SDS011;30655;53.094;6.072;2022-12-07T09:51:58;14.48;;;2.75;;
44919;SDS011;30655;53.094;6.072;2022-12-07T09:55:21;5.95;;;1.40;;
44919;SDS011;30655;53.094;6.072;2022-12-07T09:58:27;8.82;;;1.00;;
44919;SDS011;30655;53.094;6.072;2022-12-07T10:01:09;6.07;;;0.95;;
44919;SDS011;30655;53.094;6.072;2022-12-07T10:07:15;3.97;;;1.08;;
44919;SDS011;30655;53.094;6.072;2022-12-07T10:09:52;8.07;;;1.08;;
44919;SDS011;30655;53.094;6.072;2022-12-07T10:21:27;4.95;;;1.35;;
44919;SDS011;30655;53.094;6.072;2022-12-07T10:24:46;2.50;;;1.02;;
44919;SDS011;30655;53.094;6.072;2022-12-07T10:31:15;6.78;;;0.80;;
44919;SDS011;30655;53.094;6.072;2022-12-07T10:34:14;3.08;;;1.05;;
44919;SDS011;30655;53.094;6.072;2022-12-07T10:36:47;7.65;;;1.02;;
44919;SDS011;30655;53.094;6.072;2022-12-07T10:39:17;3.65;;;1.20;;
44919;SDS011;30655;53.094;6.072;2022-12-07T10:41:55;6.68;;;1.20;;
44919;SDS011;30655;53.094;6.072;2022-12-07T10:44:29;8.23;;;1.13;;
44919;SDS011;30655;53.094;6.072;2022-12-07T10:46:59;7.55;;;1.27;;
44919;SDS011;30655;53.094;6.072;2022-12-07T10:52:57;3.00;;;0.75;;
44919;SDS011;30655;53.094;6.072;2022-12-07T10:55:41;2.72;;;0.75;;
44919;SDS011;30655;53.094;6.072;2022-12-07T10:58:24;2.63;;;0.50;;
44919;SDS011;30655;53.094;6.072;2022-12-07T11:01:00;4.72;;;0.57;;
44919;SDS011;30655;53.094;6.072;2022-12-07T11:03:46;4.85;;;1.30;;
44919;SDS011;30655;53.094;6.072;2022-12-07T11:06:35;3.05;;;1.17;;
44919;SDS011;30655;53.094;6.072;2022-12-07T11:15:32;2.05;;;0.50;;
44919;SDS011;30655;53.094;6.072;2022-12-07T11:18:10;2.45;;;0.70;;
44919;SDS011;30655;53.094;6.072;2022-12-07T11:20:42;4.60;;;0.93;;
44919;SDS011;30655;53.094;6.072;2022-12-07T11:23:18;4.47;;;1.27;;
44919;SDS011;30655;53.094;6.072;2022-12-07T11:28:53;3.08;;;1.50;;
44919;SDS011;30655;53.094;6.072;2022-12-07T11:31:36;6.88;;;2.20;;
44919;SDS011;30655;53.094;6.072;2022-12-07T11:34:18;3.15;;;0.80;;
44919;SDS011;30655;53.094;6.072;2022-12-07T11:37:02;2.50;;;1.20;;
44919;SDS011;30655;53.094;6.072;2022-12-07T11:39:39;2.78;;;0.57;;
44919;SDS011;30655;53.094;6.072;2022-12-07T11:51:54;2.83;;;0.60;;
44919;SDS011;30655;53.094;6.072;2022-12-07T11:54:34;7.72;;;0.88;;
44919;SDS011;30655;53.094;6.072;2022-12-07T11:57:20;6.32;;;1.15;;
44919;SDS011;30655;53.094;6.072;2022-12-07T12:10:04;6.00;;;1.20;;
44919;SDS011;30655;53.094;6.072;2022-12-07T12:13:11;5.97;;;1.77;;
44919;SDS011;30655;53.094;6.072;2022-12-07T12:16:25;2.42;;;0.77;;
44919;SDS011;30655;53.094;6.072;2022-12-07T12:19:25;2.42;;;0.60;;
44919;SDS011;30655;53.094;6.072;2022-12-07T12:22:12;5.60;;;0.90;;
44919;SDS011;30655;53.094;6.072;2022-12-07T12:24:43;4.55;;;1.00;;
44919;SDS011;30655;53.094;6.072;2022-12-07T12:27:20;3.95;;;0.57;;
44919;SDS011;30655;53.094;6.072;2022-12-07T12:29:51;4.05;;;0.75;;
44919;SDS011;30655;53.094;6.072;2022-12-07T12:32:31;9.18;;;1.35;;
44919;SDS011;30655;53.094;6.072;2022-12-07T12:35:22;3.80;;;0.73;;
44919;SDS011;30655;53.094;6.072;2022-12-07T12:40:54;3.42;;;0.80;;
44919;SDS011;30655;53.094;6.072;2022-12-07T12:43:48;3.03;;;0.75;;
44919;SDS011;30655;53.094;6.072;2022-12-07T12:52:50;2.63;;;0.60;;
44919;SDS011;30655;53.094;6.072;2022-12-07T13:02:46;3.05;;;1.17;;
44919;SDS011;30655;53.094;6.072;2022-12-07T13:08:05;6.30;;;0.75;;
44919;SDS011;30655;53.094;6.072;2022-12-07T13:10:47;6.18;;;1.20;;
44919;SDS011;30655;53.094;6.072;2022-12-07T13:25:09;5.50;;;0.88;;
44919;SDS011;30655;53.094;6.072;2022-12-07T13:27:39;7.18;;;1.13;;
44919;SDS011;30655;53.094;6.072;2022-12-07T13:30:11;2.70;;;0.65;;
44919;SDS011;30655;53.094;6.072;2022-12-07T13:32:42;7.75;;;0.75;;
44919;SDS011;30655;53.094;6.072;2022-12-07T13:35:30;3.90;;;0.85;;
44919;SDS011;30655;53.094;6.072;2022-12-07T13:37:58;7.60;;;0.80;;
44919;SDS011;30655;53.094;6.072;2022-12-07T13:40:30;4.97;;;0.77;;
44919;SDS011;30655;53.094;6.072;2022-12-07T13:42:57;2.60;;;0.57;;
44919;SDS011;30655;53.094;6.072;2022-12-07T13:45:29;4.63;;;0.85;;
44919;SDS011;30655;53.094;6.072;2022-12-07T13:47:58;4.18;;;0.93;;
44919;SDS011;30655;53.094;6.072;2022-12-07T13:50:31;6.25;;;1.15;;
44919;SDS011;30655;53.094;6.072;2022-12-07T13:52:58;2.03;;;0.70;;
44919;SDS011;30655;53.094;6.072;2022-12-07T13:55:35;5.18;;;0.90;;
44919;SDS011;30655;53.094;6.072;2022-12-07T13:58:02;6.97;;;1.00;;
44919;SDS011;30655;53.094;6.072;2022-12-07T14:00:30;6.70;;;1.20;;
44919;SDS011;30655;53.094;6.072;2022-12-07T14:02:59;3.00;;;0.80;;
44919;SDS011;30655;53.094;6.072;2022-12-07T14:05:28;3.67;;;1.10;;
44919;SDS011;30655;53.094;6.072;2022-12-07T14:07:57;3.17;;;0.85;;
44919;SDS011;30655;53.094;6.072;2022-12-07T14:10:28;3.78;;;1.02;;
44919;SDS011;30655;53.094;6.072;2022-12-07T14:13:44;5.75;;;1.10;;
44919;SDS011;30655;53.094;6.072;2022-12-07T14:19:52;4.40;;;1.23;;
44919;SDS011;30655;53.094;6.072;2022-12-07T14:22:34;3.30;;;0.60;;
44919;SDS011;30655;53.094;6.072;2022-12-07T14:26:04;4.78;;;0.70;;
44919;SDS011;30655;53.094;6.072;2022-12-07T14:28:37;4.82;;;0.95;;
44919;SDS011;30655;53.094;6.072;2022-12-07T14:31:08;3.30;;;0.80;;
44919;SDS011;30655;53.094;6.072;2022-12-07T14:34:09;3.55;;;0.60;;
44919;SDS011;30655;53.094;6.072;2022-12-07T14:43:16;3.75;;;0.40;;
44919;SDS011;30655;53.094;6.072;2022-12-07T14:46:23;4.55;;;0.90;;
44919;SDS011;30655;53.094;6.072;2022-12-07T14:48:52;4.13;;;1.80;;
44919;SDS011;30655;53.094;6.072;2022-12-07T14:51:40;3.83;;;1.70;;
44919;SDS011;30655;53.094;6.072;2022-12-07T14:54:30;4.13;;;0.77;;
44919;SDS011;30655;53.094;6.072;2022-12-07T15:00:34;3.60;;;0.77;;
44919;SDS011;30655;53.094;6.072;2022-12-07T15:03:26;2.83;;;1.05;;
44919;SDS011;30655;53.094;6.072;2022-12-07T15:06:19;3.80;;;0.50;;
44919;SDS011;30655;53.094;6.072;2022-12-07T15:08:48;4.45;;;1.35;;
44919;SDS011;30655;53.094;6.072;2022-12-07T15:11:16;3.03;;;0.63;;
44919;SDS011;30655;53.094;6.072;2022-12-07T15:13:50;1.95;;;0.52;;
44919;SDS011;30655;53.094;6.072;2022-12-07T15:16:20;1.13;;;0.35;;
44919;SDS011;30655;53.094;6.072;2022-12-07T15:18:54;1.80;;;0.40;;
44919;SDS011;30655;53.094;6.072;2022-12-07T15:21:46;4.95;;;0.55;;
44919;SDS011;30655;53.094;6.072;2022-12-07T15:24:13;2.03;;;0.52;;
44919;SDS011;30655;53.094;6.072;2022-12-07T15:26:41;1.73;;;0.77;;
44919;SDS011;30655;53.094;6.072;2022-12-07T15:29:11;3.25;;;1.10;;
44919;SDS011;30655;53.094;6.072;2022-12-07T15:34:43;1.60;;;0.63;;
44919;SDS011;30655;53.094;6.072;2022-12-07T15:37:19;3.80;;;1.73;;
44919;SDS011;30655;53.094;6.072;2022-12-07T15:40:01;1.75;;;1.08;;
44919;SDS011;30655;53.094;6.072;2022-12-07T15:42:33;4.25;;;1.45;;
44919;SDS011;30655;53.094;6.072;2022-12-07T15:45:19;3.22;;;1.23;;
44919;SDS011;30655;53.094;6.072;2022-12-07T15:48:00;12.00;;;1.92;;
44919;SDS011;30655;53.094;6.072;2022-12-07T15:50:51;3.42;;;1.40;;
44919;SDS011;30655;53.094;6.072;2022-12-07T15:53:31;3.88;;;1.17;;
44919;SDS011;30655;53.094;6.072;2022-12-07T15:56:08;2.17;;;0.90;;
44919;SDS011;30655;53.094;6.072;2022-12-07T15:58:35;3.42;;;1.00;;
44919;SDS011;30655;53.094;6.072;2022-12-07T16:01:11;2.95;;;1.02;;
44919;SDS011;30655;53.094;6.072;2022-12-07T16:03:39;4.28;;;0.75;;
44919;SDS011;30655;53.094;6.072;2022-12-07T16:06:09;3.17;;;0.90;;
44919;SDS011;30655;53.094;6.072;2022-12-07T16:08:37;2.03;;;0.73;;
44919;SDS011;30655;53.094;6.072;2022-12-07T16:11:15;3.45;;;1.08;;
44919;SDS011;30655;53.094;6.072;2022-12-07T16:13:41;6.35;;;1.10;;
44919;SDS011;30655;53.094;6.072;2022-12-07T16:16:11;4.18;;;1.35;;
44919;SDS011;30655;53.094;6.072;2022-12-07T16:18:43;5.25;;;1.23;;
44919;SDS011;30655;53.094;6.072;2022-12-07T16:21:11;2.88;;;1.30;;
44919;SDS011;30655;53.094;6.072;2022-12-07T16:23:38;2.10;;;1.42;;
44919;SDS011;30655;53.094;6.072;2022-12-07T16:26:11;1.55;;;1.10;;
44919;SDS011;30655;53.094;6.072;2022-12-07T16:28:52;8.35;;;1.38;;
44919;SDS011;30655;53.094;6.072;2022-12-07T16:31:23;1.63;;;1.17;;
44919;SDS011;30655;53.094;6.072;2022-12-07T16:33:54;4.63;;;1.58;;
44919;SDS011;30655;53.094;6.072;2022-12-07T16:36:23;5.47;;;2.25;;
44919;SDS011;30655;53.094;6.072;2022-12-07T16:39:10;7.03;;;3.33;;
44919;SDS011;30655;53.094;6.072;2022-12-07T16:41:37;5.95;;;3.05;;
44919;SDS011;30655;53.094;6.072;2022-12-07T16:44:05;6.22;;;2.92;;
44919;SDS011;30655;53.094;6.072;2022-12-07T16:46:36;5.72;;;2.20;;
44919;SDS011;30655;53.094;6.072;2022-12-07T16:49:03;7.53;;;3.03;;
44919;SDS011;30655;53.094;6.072;2022-12-07T16:51:30;7.10;;;2.78;;
44919;SDS011;30655;53.094;6.072;2022-12-07T16:53:58;9.25;;;4.93;;
44919;SDS011;30655;53.094;6.072;2022-12-07T16:56:25;6.50;;;4.15;;
44919;SDS011;30655;53.094;6.072;2022-12-07T16:58:51;7.97;;;3.78;;
44919;SDS011;30655;53.094;6.072;2022-12-07T17:01:19;7.07;;;3.92;;
44919;SDS011;30655;53.094;6.072;2022-12-07T17:04:11;6.07;;;2.78;;
44919;SDS011;30655;53.094;6.072;2022-12-07T17:06:38;6.22;;;2.95;;
44919;SDS011;30655;53.094;6.072;2022-12-07T17:09:05;7.47;;;3.30;;
44919;SDS011;30655;53.094;6.072;2022-12-07T17:11:32;10.50;;;4.20;;
44919;SDS011;30655;53.094;6.072;2022-12-07T17:14:02;4.65;;;3.63;;
44919;SDS011;30655;53.094;6.072;2022-12-07T17:16:30;5.82;;;3.30;;
44919;SDS011;30655;53.094;6.072;2022-12-07T17:18:57;4.60;;;2.20;;
44919;SDS011;30655;53.094;6.072;2022-12-07T17:21:25;4.25;;;1.90;;
44919;SDS011;30655;53.094;6.072;2022-12-07T17:23:52;7.18;;;2.13;;
44919;SDS011;30655;53.094;6.072;2022-12-07T17:26:20;2.95;;;1.73;;
44919;SDS011;30655;53.094;6.072;2022-12-07T17:28:54;4.05;;;2.08;;
44919;SDS011;30655;53.094;6.072;2022-12-07T17:31:24;3.28;;;1.90;;
44919;SDS011;30655;53.094;6.072;2022-12-07T17:33:52;3.97;;;2.35;;
44919;SDS011;30655;53.094;6.072;2022-12-07T17:36:19;5.22;;;2.92;;
44919;SDS011;30655;53.094;6.072;2022-12-07T17:38:50;5.03;;;2.38;;
44919;SDS011;30655;53.094;6.072;2022-12-07T17:41:19;6.80;;;3.10;;
44919;SDS011;30655;53.094;6.072;2022-12-07T17:43:47;6.00;;;2.85;;
44919;SDS011;30655;53.094;6.072;2022-12-07T17:46:14;10.60;;;2.95;;
44919;SDS011;30655;53.094;6.072;2022-12-07T17:48:59;10.20;;;2.75;;
44919;SDS011;30655;53.094;6.072;2022-12-07T17:51:30;5.28;;;1.80;;
44919;SDS011;30655;53.094;6.072;2022-12-07T17:54:02;8.10;;;1.70;;
44919;SDS011;30655;53.094;6.072;2022-12-07T17:56:29;6.35;;;1.88;;
44919;SDS011;30655;53.094;6.072;2022-12-07T17:58:56;3.95;;;2.17;;
44919;SDS011;30655;53.094;6.072;2022-12-07T18:01:26;3.47;;;2.22;;
44919;SDS011;30655;53.094;6.072;2022-12-07T18:04:00;7.53;;;3.25;;
44919;SDS011;30655;53.094;6.072;2022-12-07T18:06:28;7.32;;;2.90;;
44919;SDS011;30655;53.094;6.072;2022-12-07T18:08:55;5.80;;;2.92;;
44919;SDS011;30655;53.094;6.072;2022-12-07T18:11:23;3.85;;;2.90;;
44919;SDS011;30655;53.094;6.072;2022-12-07T18:13:53;8.85;;;3.47;;
44919;SDS011;30655;53.094;6.072;2022-12-07T18:16:21;7.32;;;3.25;;
44919;SDS011;30655;53.094;6.072;2022-12-07T18:18:49;9.48;;;3.13;;
44919;SDS011;30655;53.094;6.072;2022-12-07T18:21:18;8.25;;;2.65;;
44919;SDS011;30655;53.094;6.072;2022-12-07T18:23:50;11.90;;;3.30;;
44919;SDS011;30655;53.094;6.072;2022-12-07T18:26:25;5.68;;;3.10;;
44919;SDS011;30655;53.094;6.072;2022-12-07T18:28:54;13.43;;;8.52;;
44919;SDS011;30655;53.094;6.072;2022-12-07T18:31:23;14.63;;;8.02;;
44919;SDS011;30655;53.094;6.072;2022-12-07T18:33:52;13.83;;;11.37;;
44919;SDS011;30655;53.094;6.072;2022-12-07T18:36:19;11.95;;;7.93;;
44919;SDS011;30655;53.094;6.072;2022-12-07T18:38:46;10.55;;;4.82;;